sensor_id;sensor_type;location;lat;lon;timestamp;pressure;altitude;pressure_sealevel;temperature;humidity
27729;BME280;15126;42.186;24.340;2022-10-22T00:00:17;100277.69;;;8.90;80.39
27729;BME280;15126;42.186;24.340;2022-10-22T00:02:44;100229.94;;;8.39;81.39
27729;BME280;15126;42.186;24.340;2022-10-22T00:05:11;100265.75;;;8.69;81.05
27729;BME280;15126;42.186;24.340;2022-10-22T00:07:38;100253.41;;;8.70;81.16
27729;BME280;15126;42.186;24.340;2022-10-22T00:10:15;100255.41;;;8.73;81.36
27729;BME280;15126;42.186;24.340;2022-10-22T00:12:45;100252.25;;;8.71;81.19
27729;BME280;15126;42.186;24.340;2022-10-22T00:15:12;100225.19;;;8.47;81.49
27729;BME280;15126;42.186;24.340;2022-10-22T00:17:40;100249.84;;;8.59;81.89
27729;BME280;15126;42.186;24.340;2022-10-22T00:20:07;100222.41;;;8.43;82.21
27729;BME280;15126;42.186;24.340;2022-10-22T00:22:34;100250.63;;;8.59;81.88
27729;BME280;15126;42.186;24.340;2022-10-22T00:25:05;100247.06;;;8.59;81.92
27729;BME280;15126;42.186;24.340;2022-10-22T00:27:32;100240.69;;;8.48;82.22
27729;BME280;15126;42.186;24.340;2022-10-22T00:30:01;100245.06;;;8.56;82.16
27729;BME280;15126;42.186;24.340;2022-10-22T00:32:28;100242.28;;;8.59;82.04
27729;BME280;15126;42.186;24.340;2022-10-22T00:34:58;100243.47;;;8.62;81.72
27729;BME280;15126;42.186;24.340;2022-10-22T00:37:27;100223.63;;;8.53;81.46
27729;BME280;15126;42.186;24.340;2022-10-22T00:39:55;100211.69;;;8.45;81.68
27729;BME280;15126;42.186;24.340;2022-10-22T00:42:25;100237.94;;;8.65;81.84
27729;BME280;15126;42.186;24.340;2022-10-22T00:45:03;100228.38;;;8.52;82.01
27729;BME280;15126;42.186;24.340;2022-10-22T00:47:33;100233.16;;;8.55;81.93
27729;BME280;15126;42.186;24.340;2022-10-22T00:50:06;100244.28;;;8.55;82.12
27729;BME280;15126;42.186;24.340;2022-10-22T00:52:37;100236.69;;;8.49;82.39
27729;BME280;15126;42.186;24.340;2022-10-22T00:55:08;100234.31;;;8.44;82.56
27729;BME280;15126;42.186;24.340;2022-10-22T00:57:36;100229.56;;;8.44;82.72
27729;BME280;15126;42.186;24.340;2022-10-22T01:00:05;100231.16;;;8.45;82.29
27729;BME280;15126;42.186;24.340;2022-10-22T01:02:33;100233.13;;;8.48;82.55
27729;BME280;15126;42.186;24.340;2022-10-22T01:05:00;100228.78;;;8.47;82.11
27729;BME280;15126;42.186;24.340;2022-10-22T01:07:28;100230.75;;;8.47;82.33
27729;BME280;15126;42.186;24.340;2022-10-22T01:10:02;100226.78;;;8.48;82.26
27729;BME280;15126;42.186;24.340;2022-10-22T01:12:37;100227.56;;;8.45;82.51
27729;BME280;15126;42.186;24.340;2022-10-22T01:15:16;100219.63;;;8.43;82.43
27729;BME280;15126;42.186;24.340;2022-10-22T01:17:52;100193.78;;;8.28;82.59
27729;BME280;15126;42.186;24.340;2022-10-22T01:20:43;100233.91;;;8.42;82.61
27729;BME280;15126;42.186;24.340;2022-10-22T01:23:29;100239.47;;;8.42;82.48
27729;BME280;15126;42.186;24.340;2022-10-22T01:26:07;100240.66;;;8.33;82.67
27729;BME280;15126;42.186;24.340;2022-10-22T01:28:54;100225.94;;;8.29;82.97
27729;BME280;15126;42.186;24.340;2022-10-22T01:31:25;100240.63;;;8.37;83.10
27729;BME280;15126;42.186;24.340;2022-10-22T01:33:57;100233.91;;;8.38;82.49
27729;BME280;15126;42.186;24.340;2022-10-22T01:36:27;100230.31;;;8.37;82.52
27729;BME280;15126;42.186;24.340;2022-10-22T01:38:56;100212.81;;;8.23;82.80
27729;BME280;15126;42.186;24.340;2022-10-22T01:41:28;100227.56;;;8.34;82.77
27729;BME280;15126;42.186;24.340;2022-10-22T01:43:59;100229.16;;;8.38;82.50
27729;BME280;15126;42.186;24.340;2022-10-22T01:46:27;100222.38;;;8.32;82.76
27729;BME280;15126;42.186;24.340;2022-10-22T01:49:07;100222.75;;;8.27;83.23
27729;BME280;15126;42.186;24.340;2022-10-22T01:51:51;100204.44;;;8.16;83.36
27729;BME280;15126;42.186;24.340;2022-10-22T01:54:30;100216.75;;;8.15;83.83
27729;BME280;15126;42.186;24.340;2022-10-22T01:57:08;100207.63;;;8.14;83.34
27729;BME280;15126;42.186;24.340;2022-10-22T01:59:47;100219.91;;;8.13;84.54
27729;BME280;15126;42.186;24.340;2022-10-22T02:02:26;100194.50;;;8.04;83.48
27729;BME280;15126;42.186;24.340;2022-10-22T02:04:58;100206.41;;;8.15;83.40
27729;BME280;15126;42.186;24.340;2022-10-22T02:07:30;100208.41;;;8.11;83.34
27729;BME280;15126;42.186;24.340;2022-10-22T02:09:59;100219.91;;;8.17;82.81
27729;BME280;15126;42.186;24.340;2022-10-22T02:12:28;100219.13;;;8.16;82.74
27729;BME280;15126;42.186;24.340;2022-10-22T02:15:00;100217.13;;;8.10;82.73
27729;BME280;15126;42.186;24.340;2022-10-22T02:17:33;100203.97;;;7.93;82.68
27729;BME280;15126;42.186;24.340;2022-10-22T02:20:07;100229.41;;;8.09;83.00
27729;BME280;15126;42.186;24.340;2022-10-22T02:22:35;100229.41;;;8.05;83.41
27729;BME280;15126;42.186;24.340;2022-10-22T02:25:05;100229.78;;;8.07;82.98
27729;BME280;15126;42.186;24.340;2022-10-22T02:27:35;100225.03;;;8.08;83.10
27729;BME280;15126;42.186;24.340;2022-10-22T02:30:12;100222.66;;;8.06;82.86
27729;BME280;15126;42.186;24.340;2022-10-22T02:32:50;100216.31;;;8.06;82.41
27729;BME280;15126;42.186;24.340;2022-10-22T02:35:23;100203.59;;;8.01;82.37
27729;BME280;15126;42.186;24.340;2022-10-22T02:37:53;100209.53;;;7.96;82.76
27729;BME280;15126;42.186;24.340;2022-10-22T02:40:21;100210.72;;;8.02;82.78
27729;BME280;15126;42.186;24.340;2022-10-22T02:42:51;100206.78;;;8.03;82.88
27729;BME280;15126;42.186;24.340;2022-10-22T02:45:21;100217.50;;;8.01;82.73
27729;BME280;15126;42.186;24.340;2022-10-22T02:47:51;100221.06;;;7.98;82.98
27729;BME280;15126;42.186;24.340;2022-10-22T02:50:21;100204.69;;;7.79;83.17
27729;BME280;15126;42.186;24.340;2022-10-22T02:52:48;100216.63;;;7.87;83.24
27729;BME280;15126;42.186;24.340;2022-10-22T02:55:15;100211.47;;;7.85;83.75
27729;BME280;15126;42.186;24.340;2022-10-22T02:57:44;100205.94;;;7.85;83.85
27729;BME280;15126;42.186;24.340;2022-10-22T03:00:12;100207.88;;;7.81;83.90
27729;BME280;15126;42.186;24.340;2022-10-22T03:02:42;100175.63;;;7.52;84.27
27729;BME280;15126;42.186;24.340;2022-10-22T03:05:09;100209.06;;;7.80;84.12
27729;BME280;15126;42.186;24.340;2022-10-22T03:07:36;100202.72;;;7.79;84.32
27729;BME280;15126;42.186;24.340;2022-10-22T03:10:04;100179.63;;;7.61;83.95
27729;BME280;15126;42.186;24.340;2022-10-22T03:12:31;100198.75;;;7.77;83.73
27729;BME280;15126;42.186;24.340;2022-10-22T03:14:58;100197.94;;;7.76;83.78
27729;BME280;15126;42.186;24.340;2022-10-22T03:17:25;100199.94;;;7.83;83.82
27729;BME280;15126;42.186;24.340;2022-10-22T03:19:57;100205.06;;;7.77;84.04
27729;BME280;15126;42.186;24.340;2022-10-22T03:22:25;100205.91;;;7.82;84.14
27729;BME280;15126;42.186;24.340;2022-10-22T03:24:58;100197.56;;;7.74;84.29
27729;BME280;15126;42.186;24.340;2022-10-22T03:27:27;100189.94;;;7.57;84.42
27729;BME280;15126;42.186;24.340;2022-10-22T03:29:55;100228.09;;;7.74;83.81
27729;BME280;15126;42.186;24.340;2022-10-22T03:32:24;100226.53;;;7.77;83.74
27729;BME280;15126;42.186;24.340;2022-10-22T03:34:50;100220.97;;;7.77;83.92
27729;BME280;15126;42.186;24.340;2022-10-22T03:37:19;100220.97;;;7.77;83.79
27729;BME280;15126;42.186;24.340;2022-10-22T03:39:46;100191.53;;;7.62;83.82
27729;BME280;15126;42.186;24.340;2022-10-22T03:42:16;100219.38;;;7.76;83.73
27729;BME280;15126;42.186;24.340;2022-10-22T03:44:47;100192.31;;;7.55;83.36
27729;BME280;15126;42.186;24.340;2022-10-22T03:47:14;100219.31;;;7.65;84.31
27729;BME280;15126;42.186;24.340;2022-10-22T03:49:47;100220.88;;;7.63;84.33
27729;BME280;15126;42.186;24.340;2022-10-22T03:52:17;100224.06;;;7.65;83.94
27729;BME280;15126;42.186;24.340;2022-10-22T03:54:54;100221.69;;;7.63;83.89
27729;BME280;15126;42.186;24.340;2022-10-22T03:57:28;100221.66;;;7.60;84.42
27729;BME280;15126;42.186;24.340;2022-10-22T03:59:55;100215.31;;;7.59;84.33
27729;BME280;15126;42.186;24.340;2022-10-22T04:02:22;100216.91;;;7.60;84.16
27729;BME280;15126;42.186;24.340;2022-10-22T04:04:55;100229.56;;;7.54;84.44
27729;BME280;15126;42.186;24.340;2022-10-22T04:07:26;100237.69;;;7.26;85.72
27729;BME280;15126;42.186;24.340;2022-10-22T04:09:54;100241.06;;;6.98;86.18
27729;BME280;15126;42.186;24.340;2022-10-22T04:12:21;100246.84;;;6.79;87.01
27729;BME280;15126;42.186;24.340;2022-10-22T04:14:48;100236.63;;;6.90;86.06
27729;BME280;15126;42.186;24.340;2022-10-22T04:17:15;100237.84;;;6.96;85.71
27729;BME280;15126;42.186;24.340;2022-10-22T04:19:42;100247.41;;;7.02;85.50
27729;BME280;15126;42.186;24.340;2022-10-22T04:22:09;100219.69;;;7.02;84.32
27729;BME280;15126;42.186;24.340;2022-10-22T04:24:36;100229.28;;;7.12;84.03
27729;BME280;15126;42.186;24.340;2022-10-22T04:27:04;100220.97;;;7.15;83.05
27729;BME280;15126;42.186;24.340;2022-10-22T04:29:31;100228.13;;;7.16;83.04
27729;BME280;15126;42.186;24.340;2022-10-22T04:32:01;100220.53;;;7.10;82.59
27729;BME280;15126;42.186;24.340;2022-10-22T04:34:31;100234.84;;;7.15;82.46
27729;BME280;15126;42.186;24.340;2022-10-22T04:36:58;100228.88;;;7.13;82.84
27729;BME280;15126;42.186;24.340;2022-10-22T04:39:25;100224.94;;;7.14;82.61
27729;BME280;15126;42.186;24.340;2022-10-22T04:41:55;100180.31;;;6.83;83.08
27729;BME280;15126;42.186;24.340;2022-10-22T04:44:23;100199.88;;;7.00;84.16
27729;BME280;15126;42.186;24.340;2022-10-22T04:46:52;100179.06;;;6.77;85.39
27729;BME280;15126;42.186;24.340;2022-10-22T04:49:19;100204.22;;;6.98;84.96
27729;BME280;15126;42.186;24.340;2022-10-22T04:51:49;100213.31;;;6.95;84.87
27729;BME280;15126;42.186;24.340;2022-10-22T04:54:30;100199.03;;;6.96;84.61
27729;BME280;15126;42.186;24.340;2022-10-22T04:57:15;100208.56;;;6.95;84.79
27729;BME280;15126;42.186;24.340;2022-10-22T04:59:43;100207.44;;;7.03;84.57
27729;BME280;15126;42.186;24.340;2022-10-22T05:02:10;100183.94;;;6.90;85.04
27729;BME280;15126;42.186;24.340;2022-10-22T05:04:37;100199.91;;;7.07;85.17
27729;BME280;15126;42.186;24.340;2022-10-22T05:07:04;100194.72;;;7.02;85.50
27729;BME280;15126;42.186;24.340;2022-10-22T05:09:32;100191.63;;;7.11;85.73
27729;BME280;15126;42.186;24.340;2022-10-22T05:11:59;100196.00;;;7.15;85.76
27729;BME280;15126;42.186;24.340;2022-10-22T05:14:26;100193.63;;;7.17;85.34
27729;BME280;15126;42.186;24.340;2022-10-22T05:16:54;100196.50;;;7.28;85.35
27729;BME280;15126;42.186;24.340;2022-10-22T05:19:24;100201.63;;;7.23;85.68
27729;BME280;15126;42.186;24.340;2022-10-22T05:21:53;100200.88;;;7.33;85.89
27729;BME280;15126;42.186;24.340;2022-10-22T05:24:21;100199.34;;;7.39;85.57
27729;BME280;15126;42.186;24.340;2022-10-22T05:26:48;100204.13;;;7.45;85.66
27729;BME280;15126;42.186;24.340;2022-10-22T05:29:16;100195.44;;;7.47;85.68
27729;BME280;15126;42.186;24.340;2022-10-22T05:31:46;100167.22;;;7.38;86.10
27729;BME280;15126;42.186;24.340;2022-10-22T05:34:14;100186.38;;;7.60;86.14
27729;BME280;15126;42.186;24.340;2022-10-22T05:36:42;100180.09;;;7.74;85.98
27729;BME280;15126;42.186;24.340;2022-10-22T05:39:09;100190.44;;;7.84;85.80
27729;BME280;15126;42.186;24.340;2022-10-22T05:41:36;100183.75;;;7.96;85.67
27729;BME280;15126;42.186;24.340;2022-10-22T05:44:03;100177.81;;;8.08;85.81
27729;BME280;15126;42.186;24.340;2022-10-22T05:46:33;100188.59;;;8.23;85.62
27729;BME280;15126;42.186;24.340;2022-10-22T05:49:02;100183.47;;;8.32;85.32
27729;BME280;15126;42.186;24.340;2022-10-22T05:51:33;100185.50;;;8.53;85.15
27729;BME280;15126;42.186;24.340;2022-10-22T05:54:03;100190.66;;;8.76;84.55
27729;BME280;15126;42.186;24.340;2022-10-22T05:56:31;100191.47;;;8.90;84.48
27729;BME280;15126;42.186;24.340;2022-10-22T05:58:58;100191.88;;;9.10;83.11
27729;BME280;15126;42.186;24.340;2022-10-22T06:01:34;100195.41;;;9.11;82.53
27729;BME280;15126;42.186;24.340;2022-10-22T06:04:03;100195.38;;;9.42;82.00
27729;BME280;15126;42.186;24.340;2022-10-22T06:06:33;100177.81;;;9.59;81.66
27729;BME280;15126;42.186;24.340;2022-10-22T06:09:02;100176.56;;;9.78;80.13
27729;BME280;15126;42.186;24.340;2022-10-22T06:11:30;100187.53;;;10.17;79.21
27729;BME280;15126;42.186;24.340;2022-10-22T06:13:57;100175.56;;;10.27;77.32
27729;BME280;15126;42.186;24.340;2022-10-22T06:16:27;100177.84;;;10.39;76.99
27729;BME280;15126;42.186;24.340;2022-10-22T06:18:54;100185.69;;;10.58;76.33
27729;BME280;15126;42.186;24.340;2022-10-22T06:21:21;100196.69;;;10.80;75.85
27729;BME280;15126;42.186;24.340;2022-10-22T06:23:49;100190.41;;;10.68;74.17
27729;BME280;15126;42.186;24.340;2022-10-22T06:26:16;100192.44;;;10.61;74.23
27729;BME280;15126;42.186;24.340;2022-10-22T06:28:43;100202.56;;;10.37;76.40
27729;BME280;15126;42.186;24.340;2022-10-22T06:31:10;100217.56;;;10.57;75.37
27729;BME280;15126;42.186;24.340;2022-10-22T06:33:37;100221.09;;;10.68;75.17
27729;BME280;15126;42.186;24.340;2022-10-22T06:36:08;100197.22;;;10.60;75.47
27729;BME280;15126;42.186;24.340;2022-10-22T06:38:36;100206.28;;;10.79;75.91
27729;BME280;15126;42.186;24.340;2022-10-22T06:41:06;100224.38;;;11.08;74.77
27729;BME280;15126;42.186;24.340;2022-10-22T06:43:33;100225.09;;;11.19;73.86
27729;BME280;15126;42.186;24.340;2022-10-22T06:46:03;100215.47;;;11.23;73.85
27729;BME280;15126;42.186;24.340;2022-10-22T06:48:31;100235.97;;;11.47;71.95
27729;BME280;15126;42.186;24.340;2022-10-22T06:51:01;100226.75;;;11.50;72.97
27729;BME280;15126;42.186;24.340;2022-10-22T06:53:28;100233.91;;;11.55;72.69
27729;BME280;15126;42.186;24.340;2022-10-22T06:55:56;100233.38;;;11.67;72.60
27729;BME280;15126;42.186;24.340;2022-10-22T06:58:24;100219.41;;;11.70;72.65
27729;BME280;15126;42.186;24.340;2022-10-22T07:01:00;100224.19;;;11.70;72.74
27729;BME280;15126;42.186;24.340;2022-10-22T07:03:27;100211.56;;;11.55;72.65
27729;BME280;15126;42.186;24.340;2022-10-22T07:05:54;100218.25;;;11.64;72.87
27729;BME280;15126;42.186;24.340;2022-10-22T07:08:20;100226.16;;;11.73;73.11
27729;BME280;15126;42.186;24.340;2022-10-22T07:10:47;100219.63;;;11.86;72.21
27729;BME280;15126;42.186;24.340;2022-10-22T07:13:14;100219.25;;;11.84;72.23
27729;BME280;15126;42.186;24.340;2022-10-22T07:15:51;100216.72;;;11.93;72.60
27729;BME280;15126;42.186;24.340;2022-10-22T07:18:18;100219.50;;;11.97;72.06
27729;BME280;15126;42.186;24.340;2022-10-22T07:20:48;100209.56;;;11.92;72.13
27729;BME280;15126;42.186;24.340;2022-10-22T07:23:15;100221.69;;;12.13;71.65
27729;BME280;15126;42.186;24.340;2022-10-22T07:25:42;100213.47;;;12.29;72.72
27729;BME280;15126;42.186;24.340;2022-10-22T07:28:09;100220.56;;;12.37;72.32
27729;BME280;15126;42.186;24.340;2022-10-22T07:30:36;100219.72;;;12.40;70.81
27729;BME280;15126;42.186;24.340;2022-10-22T07:33:06;100228.09;;;12.70;70.24
27729;BME280;15126;42.186;24.340;2022-10-22T07:35:33;100228.19;;;12.63;69.85
27729;BME280;15126;42.186;24.340;2022-10-22T07:38:00;100203.25;;;12.72;69.81
27729;BME280;15126;42.186;24.340;2022-10-22T07:40:26;100209.78;;;12.89;68.18
27729;BME280;15126;42.186;24.340;2022-10-22T07:42:53;100198.06;;;12.97;68.20
27729;BME280;15126;42.186;24.340;2022-10-22T07:45:20;100211.06;;;13.11;68.31
27729;BME280;15126;42.186;24.340;2022-10-22T07:47:47;100211.97;;;13.28;67.63
27729;BME280;15126;42.186;24.340;2022-10-22T07:50:16;100207.34;;;13.41;67.94
27729;BME280;15126;42.186;24.340;2022-10-22T07:52:43;100197.06;;;13.11;67.46
27729;BME280;15126;42.186;24.340;2022-10-22T07:55:11;100197.63;;;13.45;67.78
27729;BME280;15126;42.186;24.340;2022-10-22T07:57:37;100197.41;;;13.36;66.91
27729;BME280;15126;42.186;24.340;2022-10-22T08:00:05;100187.47;;;13.55;66.55
27729;BME280;15126;42.186;24.340;2022-10-22T08:02:32;100197.44;;;13.76;65.91
27729;BME280;15126;42.186;24.340;2022-10-22T08:04:59;100188.13;;;13.82;65.16
27729;BME280;15126;42.186;24.340;2022-10-22T08:07:27;100198.53;;;14.01;64.91
27729;BME280;15126;42.186;24.340;2022-10-22T08:09:54;100179.78;;;13.98;64.47
27729;BME280;15126;42.186;24.340;2022-10-22T08:12:20;100207.38;;;14.19;63.47
27729;BME280;15126;42.186;24.340;2022-10-22T08:14:47;100196.78;;;14.27;62.86
27729;BME280;15126;42.186;24.340;2022-10-22T08:17:14;100190.97;;;14.38;62.87
27729;BME280;15126;42.186;24.340;2022-10-22T08:19:41;100179.75;;;14.38;62.76
27729;BME280;15126;42.186;24.340;2022-10-22T08:22:08;100189.06;;;14.51;63.29
27729;BME280;15126;42.186;24.340;2022-10-22T08:24:36;100188.00;;;14.45;63.45
27729;BME280;15126;42.186;24.340;2022-10-22T08:27:03;100180.94;;;14.56;64.10
27729;BME280;15126;42.186;24.340;2022-10-22T08:29:30;100172.06;;;14.58;64.02
27729;BME280;15126;42.186;24.340;2022-10-22T08:31:56;100175.38;;;14.53;61.21
27729;BME280;15126;42.186;24.340;2022-10-22T08:34:23;100174.34;;;14.63;61.69
27729;BME280;15126;42.186;24.340;2022-10-22T08:36:50;100168.47;;;14.89;62.96
27729;BME280;15126;42.186;24.340;2022-10-22T08:39:17;100164.34;;;15.10;62.73
27729;BME280;15126;42.186;24.340;2022-10-22T08:41:53;100162.97;;;15.31;62.98
27729;BME280;15126;42.186;24.340;2022-10-22T08:44:42;100159.28;;;15.50;62.83
27729;BME280;15126;42.186;24.340;2022-10-22T08:50:08;100159.41;;;15.88;56.09
27729;BME280;15126;42.186;24.340;2022-10-22T08:52:36;100146.13;;;15.88;55.49
27729;BME280;15126;42.186;24.340;2022-10-22T08:55:12;100131.84;;;15.95;56.00
27729;BME280;15126;42.186;24.340;2022-10-22T08:57:47;100138.78;;;16.20;57.82
27729;BME280;15126;42.186;24.340;2022-10-22T09:00:21;100142.81;;;16.31;56.59
27729;BME280;15126;42.186;24.340;2022-10-22T09:03:00;100140.34;;;16.08;57.04
27729;BME280;15126;42.186;24.340;2022-10-22T09:05:40;100140.81;;;16.19;57.64
27729;BME280;15126;42.186;24.340;2022-10-22T09:08:10;100138.19;;;16.50;57.77
27729;BME280;15126;42.186;24.340;2022-10-22T09:10:45;100146.34;;;16.73;56.07
27729;BME280;15126;42.186;24.340;2022-10-22T09:13:17;100129.53;;;16.95;56.05
27729;BME280;15126;42.186;24.340;2022-10-22T09:15:47;100131.44;;;16.98;52.75
27729;BME280;15126;42.186;24.340;2022-10-22T09:18:23;100130.53;;;17.01;52.11
27729;BME280;15126;42.186;24.340;2022-10-22T09:20:55;100130.97;;;17.12;53.93
27729;BME280;15126;42.186;24.340;2022-10-22T09:23:31;100116.66;;;17.06;51.03
27729;BME280;15126;42.186;24.340;2022-10-22T09:26:11;100118.88;;;17.11;53.73
27729;BME280;15126;42.186;24.340;2022-10-22T09:28:40;100114.94;;;17.09;51.82
27729;BME280;15126;42.186;24.340;2022-10-22T09:31:10;100111.53;;;17.14;51.44
27729;BME280;15126;42.186;24.340;2022-10-22T09:33:37;100118.75;;;17.15;53.37
27729;BME280;15126;42.186;24.340;2022-10-22T09:36:05;100105.50;;;17.03;53.61
27729;BME280;15126;42.186;24.340;2022-10-22T09:38:35;100096.63;;;16.92;55.19
27729;BME280;15126;42.186;24.340;2022-10-22T09:41:05;100085.91;;;16.87;54.14
27729;BME280;15126;42.186;24.340;2022-10-22T09:43:32;100094.59;;;16.80;53.58
27729;BME280;15126;42.186;24.340;2022-10-22T09:46:05;100099.75;;;16.94;54.38
27729;BME280;15126;42.186;24.340;2022-10-22T09:48:35;100089.50;;;17.00;53.25
27729;BME280;15126;42.186;24.340;2022-10-22T09:51:05;100074.56;;;17.12;51.71
27729;BME280;15126;42.186;24.340;2022-10-22T09:53:37;100091.13;;;17.10;51.34
27729;BME280;15126;42.186;24.340;2022-10-22T09:56:12;100075.75;;;17.23;53.65
27729;BME280;15126;42.186;24.340;2022-10-22T09:58:43;100075.94;;;17.07;53.92
27729;BME280;15126;42.186;24.340;2022-10-22T10:01:18;100071.28;;;17.13;55.79
27729;BME280;15126;42.186;24.340;2022-10-22T10:03:47;100064.34;;;17.27;53.42
27729;BME280;15126;42.186;24.340;2022-10-22T10:06:17;100061.25;;;17.34;52.39
27729;BME280;15126;42.186;24.340;2022-10-22T10:08:44;100058.94;;;17.54;52.34
27729;BME280;15126;42.186;24.340;2022-10-22T10:11:18;100051.78;;;17.62;52.47
27729;BME280;15126;42.186;24.340;2022-10-22T10:13:55;100057.50;;;17.71;52.79
27729;BME280;15126;42.186;24.340;2022-10-22T10:16:34;100053.28;;;17.76;49.16
27729;BME280;15126;42.186;24.340;2022-10-22T10:19:18;100026.06;;;17.60;50.56
27729;BME280;15126;42.186;24.340;2022-10-22T10:21:53;100055.91;;;17.70;50.33
27729;BME280;15126;42.186;24.340;2022-10-22T10:24:27;100039.03;;;17.79;48.93
27729;BME280;15126;42.186;24.340;2022-10-22T10:27:02;100027.31;;;17.59;51.19
27729;BME280;15126;42.186;24.340;2022-10-22T10:29:40;100011.69;;;17.67;50.86
27729;BME280;15126;42.186;24.340;2022-10-22T10:32:25;100022.38;;;17.72;49.98
27729;BME280;15126;42.186;24.340;2022-10-22T10:35:02;100018.00;;;17.71;49.08
27729;BME280;15126;42.186;24.340;2022-10-22T10:37:39;100019.91;;;17.83;49.15
27729;BME280;15126;42.186;24.340;2022-10-22T10:40:18;100000.22;;;17.93;50.46
27729;BME280;15126;42.186;24.340;2022-10-22T10:42:52;100005.25;;;17.98;52.47
27729;BME280;15126;42.186;24.340;2022-10-22T10:45:27;99997.75;;;18.04;48.14
27729;BME280;15126;42.186;24.340;2022-10-22T10:48:12;99993.69;;;18.14;49.32
27729;BME280;15126;42.186;24.340;2022-10-22T10:50:54;99968.25;;;18.05;49.38
27729;BME280;15126;42.186;24.340;2022-10-22T10:53:31;99978.81;;;18.22;48.59
27729;BME280;15126;42.186;24.340;2022-10-22T10:56:08;99947.28;;;18.24;48.36
27729;BME280;15126;42.186;24.340;2022-10-22T10:58:47;99945.25;;;18.24;47.57
27729;BME280;15126;42.186;24.340;2022-10-22T11:01:23;99966.47;;;18.47;48.15
27729;BME280;15126;42.186;24.340;2022-10-22T11:04:06;99960.53;;;18.54;47.84
27729;BME280;15126;42.186;24.340;2022-10-22T11:06:40;99951.13;;;18.48;45.91
27729;BME280;15126;42.186;24.340;2022-10-22T11:09:19;99956.78;;;18.57;46.55
27729;BME280;15126;42.186;24.340;2022-10-22T11:11:49;99951.00;;;18.61;47.54
27729;BME280;15126;42.186;24.340;2022-10-22T11:14:21;99925.41;;;18.64;47.53
27729;BME280;15126;42.186;24.340;2022-10-22T11:16:55;99925.88;;;18.72;46.95
27729;BME280;15126;42.186;24.340;2022-10-22T11:19:31;99943.44;;;18.85;46.22
27729;BME280;15126;42.186;24.340;2022-10-22T11:22:05;99934.34;;;18.90;46.91
27729;BME280;15126;42.186;24.340;2022-10-22T11:24:37;99937.94;;;18.99;45.91
27729;BME280;15126;42.186;24.340;2022-10-22T11:27:13;99931.03;;;19.00;46.70
27729;BME280;15126;42.186;24.340;2022-10-22T11:29:48;99936.19;;;19.11;44.66
27729;BME280;15126;42.186;24.340;2022-10-22T11:32:19;99926.63;;;19.09;46.05
27729;BME280;15126;42.186;24.340;2022-10-22T11:34:50;99915.94;;;19.03;45.98
27729;BME280;15126;42.186;24.340;2022-10-22T11:37:20;99908.75;;;18.93;45.63
27729;BME280;15126;42.186;24.340;2022-10-22T11:39:50;99910.59;;;19.06;46.84
27729;BME280;15126;42.186;24.340;2022-10-22T11:42:19;99903.03;;;19.12;45.26
27729;BME280;15126;42.186;24.340;2022-10-22T11:44:48;99906.31;;;19.19;46.12
27729;BME280;15126;42.186;24.340;2022-10-22T11:47:25;99891.22;;;19.31;44.79
27729;BME280;15126;42.186;24.340;2022-10-22T11:49:58;99875.50;;;19.39;44.28
27729;BME280;15126;42.186;24.340;2022-10-22T11:52:37;99895.16;;;19.76;44.37
27729;BME280;15126;42.186;24.340;2022-10-22T11:55:30;99870.03;;;19.92;45.24
27729;BME280;15126;42.186;24.340;2022-10-22T11:57:58;99882.22;;;20.07;44.46
27729;BME280;15126;42.186;24.340;2022-10-22T12:00:33;99847.22;;;19.96;42.72
27729;BME280;15126;42.186;24.340;2022-10-22T12:03:02;99879.22;;;20.35;42.88
27729;BME280;15126;42.186;24.340;2022-10-22T12:05:34;99879.47;;;20.46;42.87
27729;BME280;15126;42.186;24.340;2022-10-22T12:08:13;99863.03;;;20.50;41.23
27729;BME280;15126;42.186;24.340;2022-10-22T12:10:54;99865.81;;;20.59;42.12
27729;BME280;15126;42.186;24.340;2022-10-22T12:13:24;99857.41;;;20.64;41.16
27729;BME280;15126;42.186;24.340;2022-10-22T12:15:53;99850.75;;;20.53;40.56
27729;BME280;15126;42.186;24.340;2022-10-22T12:18:23;99818.34;;;20.30;41.39
27729;BME280;15126;42.186;24.340;2022-10-22T12:20:53;99849.84;;;20.47;42.28
27729;BME280;15126;42.186;24.340;2022-10-22T12:23:27;99829.72;;;20.21;43.23
27729;BME280;15126;42.186;24.340;2022-10-22T12:25:55;99847.09;;;20.38;42.70
27729;BME280;15126;42.186;24.340;2022-10-22T12:28:22;99842.50;;;20.40;43.37
27729;BME280;15126;42.186;24.340;2022-10-22T12:30:49;99838.00;;;20.34;42.28
27729;BME280;15126;42.186;24.340;2022-10-22T12:33:19;99839.84;;;20.37;42.19
27729;BME280;15126;42.186;24.340;2022-10-22T12:35:47;99829.13;;;20.41;41.97
27729;BME280;15126;42.186;24.340;2022-10-22T12:38:20;99824.84;;;20.45;40.77
27729;BME280;15126;42.186;24.340;2022-10-22T12:40:48;99813.22;;;20.43;41.49
27729;BME280;15126;42.186;24.340;2022-10-22T12:43:16;99816.72;;;20.38;42.11
27729;BME280;15126;42.186;24.340;2022-10-22T12:45:45;99805.38;;;20.38;41.51
27729;BME280;15126;42.186;24.340;2022-10-22T12:48:16;99813.00;;;20.47;42.95
27729;BME280;15126;42.186;24.340;2022-10-22T12:50:46;99808.16;;;20.62;44.47
27729;BME280;15126;42.186;24.340;2022-10-22T12:53:14;99811.84;;;20.53;42.01
27729;BME280;15126;42.186;24.340;2022-10-22T12:55:50;99818.13;;;20.72;42.18
27729;BME280;15126;42.186;24.340;2022-10-22T12:58:19;99823.38;;;20.79;42.71
27729;BME280;15126;42.186;24.340;2022-10-22T13:00:47;99808.75;;;20.81;40.58
27729;BME280;15126;42.186;24.340;2022-10-22T13:03:25;99823.38;;;20.79;40.70
27729;BME280;15126;42.186;24.340;2022-10-22T13:05:52;99822.81;;;20.75;40.70